Time;durP1;ratioP1;P1;durP2;ratioP2;P2;SDS_P1;SDS_P2;PMS_P1;PMS_P2;Temp;Humidity;BMP_temperature;BMP_pressure;BME280_temperature;BME280_humidity;BME280_pressure;Samples;Min_cycle;Max_cycle;Signal;HPM_P1;HPM_P2
2023/12/21 00:00:34;;;;;;;62.63;60.17;;;8.70;99.90;;;;;;5033537;28;20037;-89
2023/12/21 00:03:00;;;;;;;63.70;61.35;;;8.60;99.90;;;;;;5034793;28;20041;-90
2023/12/21 00:05:26;;;;;;;59.78;57.17;;;8.70;99.90;;;;;;5018008;28;20045;-89
2023/12/21 00:07:51;;;;;;;65.68;63.08;;;8.70;99.90;;;;;;5017795;28;20087;-87
2023/12/21 00:10:17;;;;;;;64.55;61.90;;;8.70;99.90;;;;;;5034011;28;20049;-89
2023/12/21 00:12:43;;;;;;;62.97;60.00;;;8.70;99.90;;;;;;5017050;28;20486;-90
2023/12/21 00:15:09;;;;;;;62.30;59.58;;;8.60;99.90;;;;;;5034431;28;20429;-86
2023/12/21 00:17:35;;;;;;;67.35;64.85;;;8.70;99.90;;;;;;5017511;28;20041;-88
2023/12/21 00:20:00;;;;;;;68.53;65.78;;;8.60;99.90;;;;;;5017873;28;20123;-90
2023/12/21 00:22:26;;;;;;;66.95;64.25;;;8.60;99.90;;;;;;5001649;28;20038;-88
2023/12/21 00:24:52;;;;;;;65.28;62.65;;;8.60;99.90;;;;;;4983968;28;20481;-89
2023/12/21 00:27:17;;;;;;;66.13;63.67;;;8.60;99.90;;;;;;5034155;28;20041;-90
2023/12/21 00:29:43;;;;;;;67.72;65.00;;;8.60;99.90;;;;;;5033708;28;20040;-87
2023/12/21 00:32:09;;;;;;;62.08;59.50;;;8.60;99.90;;;;;;5034370;28;20037;-90
2023/12/21 00:34:34;;;;;;;63.90;61.28;;;8.60;99.90;;;;;;4985445;28;20573;-92
2023/12/21 00:37:00;;;;;;;58.03;55.88;;;8.70;99.90;;;;;;5018036;28;20041;-90
2023/12/21 00:39:26;;;;;;;65.00;62.55;;;8.70;99.90;;;;;;5016774;28;20045;-90
2023/12/21 00:41:51;;;;;;;67.30;64.13;;;8.70;99.90;;;;;;5033842;28;20092;-91
2023/12/21 00:44:17;;;;;;;54.95;52.60;;;8.70;99.90;;;;;;5018174;28;20041;-90
2023/12/21 00:46:43;;;;;;;63.17;60.40;;;8.70;99.90;;;;;;5034411;28;20095;-89
2023/12/21 00:49:08;;;;;;;61.17;58.22;;;8.70;99.90;;;;;;5033160;28;20033;-91
2023/12/21 00:51:34;;;;;;;61.05;58.13;;;8.60;99.90;;;;;;5017599;28;20056;-89
2023/12/21 00:53:59;;;;;;;57.45;55.00;;;8.70;99.90;;;;;;5016967;28;20422;-91
2023/12/21 00:56:25;;;;;;;57.70;55.22;;;8.70;99.90;;;;;;5016877;28;20050;-94
2023/12/21 00:58:51;;;;;;;54.25;51.85;;;8.70;99.90;;;;;;5016920;28;20048;-93
2023/12/21 01:01:17;;;;;;;49.67;47.53;;;8.60;99.90;;;;;;5033640;28;20047;-89
2023/12/21 01:03:42;;;;;;;52.47;49.47;;;8.70;99.90;;;;;;5017643;28;20428;-91
2023/12/21 01:06:08;;;;;;;49.33;47.53;;;8.70;99.90;;;;;;5017285;28;20042;-91
2023/12/21 01:08:34;;;;;;;46.35;44.08;;;8.70;99.90;;;;;;5032566;28;20034;-92
2023/12/21 01:11:02;;;;;;;42.78;40.58;;;8.70;99.90;;;;;;5016820;28;20041;-90
2023/12/21 01:13:28;;;;;;;41.53;39.40;;;8.70;99.90;;;;;;5017282;28;20081;-90
2023/12/21 01:15:54;;;;;;;44.00;41.58;;;8.70;99.90;;;;;;5001269;28;20068;-88
2023/12/21 01:18:19;;;;;;;37.30;35.63;;;8.70;99.90;;;;;;5033559;28;20045;-88
2023/12/21 01:20:45;;;;;;;39.00;37.10;;;8.70;99.90;;;;;;5044088;28;20064;-86
2023/12/21 01:23:11;;;;;;;38.22;36.33;;;8.80;99.90;;;;;;5032732;28;20037;-86
2023/12/21 01:25:36;;;;;;;38.13;36.13;;;8.70;99.90;;;;;;5016374;28;20049;-92
2023/12/21 01:28:02;;;;;;;37.33;35.25;;;8.70;99.90;;;;;;5016638;28;20038;-88
2023/12/21 01:30:28;;;;;;;35.88;33.85;;;8.80;99.90;;;;;;5015921;28;20354;-89
2023/12/21 01:32:53;;;;;;;36.70;34.65;;;8.70;99.90;;;;;;5016210;28;20077;-93
2023/12/21 01:35:20;;;;;;;35.05;33.03;;;8.80;99.90;;;;;;4999363;28;20139;-92
2023/12/21 01:37:46;;;;;;;36.85;35.00;;;8.80;99.90;;;;;;5032094;28;20096;-91
2023/12/21 01:40:12;;;;;;;35.78;33.97;;;8.80;99.90;;;;;;5009868;28;20426;-91
2023/12/21 01:42:37;;;;;;;33.47;31.67;;;8.80;99.90;;;;;;5032493;28;20041;-92
2023/12/21 01:45:04;;;;;;;32.42;30.90;;;8.80;99.90;;;;;;5032473;28;20037;-91
2023/12/21 01:47:30;;;;;;;34.70;32.85;;;8.80;99.90;;;;;;5032303;28;20038;-90
2023/12/21 01:49:56;;;;;;;34.38;32.72;;;8.80;99.90;;;;;;5032577;28;20053;-88
2023/12/21 01:52:22;;;;;;;34.65;33.13;;;8.80;99.90;;;;;;4999388;28;20120;-91
2023/12/21 01:54:48;;;;;;;31.75;30.45;;;8.80;99.90;;;;;;5015884;28;20088;-92
2023/12/21 01:57:14;;;;;;;34.42;32.70;;;8.80;99.90;;;;;;5031837;28;20041;-86
2023/12/21 01:59:40;;;;;;;34.25;32.63;;;8.80;99.90;;;;;;5015321;28;20102;-92
2023/12/21 02:02:06;;;;;;;31.02;29.42;;;8.80;99.90;;;;;;4999711;28;20095;-91
2023/12/21 02:04:32;;;;;;;31.35;30.02;;;8.80;99.90;;;;;;5032745;28;20048;-89
2023/12/21 02:06:58;;;;;;;36.47;34.70;;;8.80;99.90;;;;;;5015962;28;20037;-90
2023/12/21 02:09:23;;;;;;;34.17;32.05;;;8.80;99.90;;;;;;5032526;28;20030;-90
2023/12/21 02:11:49;;;;;;;37.13;35.20;;;8.80;99.90;;;;;;5031451;28;20529;-90
2023/12/21 02:14:15;;;;;;;34.75;32.88;;;8.80;99.90;;;;;;5015603;28;20045;-92
2023/12/21 02:16:56;;;;;;;34.42;32.53;;;8.80;99.90;;;;;;5015945;28;20111;-89
2023/12/21 02:19:22;;;;;;;35.88;34.17;;;8.80;99.90;;;;;;5021639;28;20092;-89
2023/12/21 02:21:50;;;;;;;34.47;32.70;;;8.80;99.90;;;;;;5031875;28;20080;-92
2023/12/21 02:24:17;;;;;;;36.50;34.90;;;8.70;99.90;;;;;;5015672;28;20103;-87
2023/12/21 02:26:43;;;;;;;34.92;33.15;;;8.80;99.90;;;;;;5032002;28;20044;-90
2023/12/21 02:29:09;;;;;;;36.45;34.55;;;8.70;99.90;;;;;;5031925;28;20048;-88
2023/12/21 02:31:36;;;;;;;34.13;32.42;;;8.80;99.90;;;;;;5031624;28;20381;-87
2023/12/21 02:34:02;;;;;;;31.63;30.05;;;8.80;99.90;;;;;;5031663;28;20037;-91
2023/12/21 02:36:28;;;;;;;29.52;27.67;;;8.80;99.90;;;;;;5015674;28;20045;-94
2023/12/21 02:38:54;;;;;;;29.35;27.65;;;8.80;99.90;;;;;;5031780;28;20049;-88
2023/12/21 02:41:20;;;;;;;29.27;27.33;;;8.80;99.90;;;;;;5015486;28;20042;-87
2023/12/21 02:43:45;;;;;;;31.35;29.35;;;8.90;99.90;;;;;;5014949;28;20111;-87
2023/12/21 02:46:11;;;;;;;30.40;28.88;;;8.90;99.90;;;;;;5031129;28;20051;-90
2023/12/21 02:48:37;;;;;;;33.15;31.50;;;8.80;99.90;;;;;;5031596;28;20034;-85
2023/12/21 02:51:03;;;;;;;33.58;31.58;;;8.80;99.90;;;;;;5014726;28;20071;-87
2023/12/21 02:53:28;;;;;;;33.88;32.33;;;8.80;99.90;;;;;;4998333;28;20265;-87
2023/12/21 02:55:54;;;;;;;35.30;33.72;;;8.80;99.90;;;;;;5015332;28;20048;-87
2023/12/21 02:58:20;;;;;;;38.45;36.92;;;8.80;99.90;;;;;;4999336;28;20041;-90
2023/12/21 03:00:45;;;;;;;39.90;37.83;;;8.70;99.90;;;;;;5014974;28;20473;-89
2023/12/21 03:03:11;;;;;;;39.78;37.83;;;8.80;99.90;;;;;;5015296;28;20046;-87
2023/12/21 03:05:37;;;;;;;42.40;40.50;;;8.70;99.90;;;;;;5032612;28;20091;-87
2023/12/21 03:08:03;;;;;;;41.67;39.55;;;8.70;99.90;;;;;;5032237;28;20076;-90
2023/12/21 03:10:29;;;;;;;43.08;41.38;;;8.70;99.90;;;;;;5035478;28;20041;-89
2023/12/21 03:12:55;;;;;;;44.17;42.15;;;8.70;99.90;;;;;;5002063;28;20045;-84
2023/12/21 03:15:20;;;;;;;42.60;40.60;;;8.70;99.90;;;;;;5019621;28;20492;-87
2023/12/21 03:17:46;;;;;;;42.70;40.47;;;8.70;99.90;;;;;;5019829;28;20041;-87
2023/12/21 03:20:12;;;;;;;43.60;41.45;;;8.70;99.90;;;;;;5018804;28;20489;-90
2023/12/21 03:22:37;;;;;;;45.20;43.30;;;8.60;99.90;;;;;;5019312;28;20164;-85
2023/12/21 03:25:04;;;;;;;44.22;41.92;;;8.60;99.90;;;;;;5019028;28;20049;-86
2023/12/21 03:27:29;;;;;;;44.40;42.47;;;8.60;99.90;;;;;;5035976;28;20041;-90
2023/12/21 03:29:55;;;;;;;43.25;41.35;;;8.60;99.90;;;;;;5018587;28;20045;-91
2023/12/21 03:32:20;;;;;;;44.90;42.60;;;8.60;99.90;;;;;;5018977;28;20045;-86
2023/12/21 03:34:46;;;;;;;43.97;41.70;;;8.60;99.90;;;;;;5001000;28;20124;-89
2023/12/21 03:37:12;;;;;;;45.00;43.05;;;8.60;99.90;;;;;;5034394;28;20139;-93
2023/12/21 03:39:38;;;;;;;42.55;40.92;;;8.50;99.90;;;;;;5002826;28;20454;-87
2023/12/21 03:42:04;;;;;;;42.85;41.00;;;8.60;99.90;;;;;;5019829;28;20056;-91
2023/12/21 03:44:29;;;;;;;43.45;41.38;;;8.60;99.90;;;;;;5036063;28;20029;-92
2023/12/21 03:46:55;;;;;;;41.50;39.95;;;8.60;99.90;;;;;;5036278;28;20128;-87
2023/12/21 03:49:21;;;;;;;45.67;43.83;;;8.60;99.90;;;;;;5018599;28;20151;-91
2023/12/21 03:51:46;;;;;;;43.10;41.17;;;8.60;99.90;;;;;;5002350;28;20063;-90
2023/12/21 03:54:12;;;;;;;41.63;39.58;;;8.60;99.90;;;;;;5019133;28;20041;-92
2023/12/21 03:56:39;;;;;;;48.83;46.83;;;8.60;99.90;;;;;;5035523;28;20037;-93
2023/12/21 03:59:05;;;;;;;39.50;37.72;;;8.60;99.90;;;;;;5020367;28;20376;-84
2023/12/21 04:01:31;;;;;;;42.13;40.58;;;8.60;99.90;;;;;;5019636;28;20045;-94
2023/12/21 04:03:56;;;;;;;40.33;38.83;;;8.60;99.90;;;;;;5019231;28;20053;-90
2023/12/21 04:06:22;;;;;;;41.38;39.67;;;8.70;99.90;;;;;;5019294;28;20045;-90
2023/12/21 04:08:48;;;;;;;42.03;40.25;;;8.70;99.90;;;;;;5036765;28;20453;-91
2023/12/21 04:11:14;;;;;;;41.38;39.67;;;8.70;99.90;;;;;;5019771;28;20041;-92
2023/12/21 04:13:39;;;;;;;41.60;40.00;;;8.70;99.90;;;;;;5002886;28;20033;-92
2023/12/21 04:16:06;;;;;;;40.03;38.38;;;8.70;99.90;;;;;;5019884;28;20049;-91
2023/12/21 04:18:32;;;;;;;39.33;37.72;;;8.70;99.90;;;;;;5002683;28;20036;-91
2023/12/21 04:20:58;;;;;;;42.17;40.58;;;8.70;99.90;;;;;;5017998;28;20042;-92
2023/12/21 04:23:24;;;;;;;42.17;40.25;;;8.60;99.90;;;;;;5018781;28;20465;-89
2023/12/21 04:25:50;;;;;;;41.22;39.65;;;8.70;99.90;;;;;;5033331;28;20384;-88
2023/12/21 04:28:16;;;;;;;41.30;39.70;;;8.70;99.90;;;;;;5014895;28;20100;-93
2023/12/21 04:30:41;;;;;;;40.45;38.85;;;8.70;99.90;;;;;;5016613;28;20064;-93
2023/12/21 04:33:10;;;;;;;41.05;39.13;;;8.70;99.90;;;;;;5000061;28;20041;-91
2023/12/21 04:35:36;;;;;;;43.30;41.35;;;8.70;99.90;;;;;;5019787;28;20045;-92
2023/12/21 04:38:02;;;;;;;40.08;38.13;;;8.70;99.90;;;;;;5018794;28;20481;-91
2023/12/21 04:40:28;;;;;;;40.75;38.97;;;8.70;99.90;;;;;;5034709;28;20059;-93
2023/12/21 04:42:55;;;;;;;38.42;36.83;;;8.70;99.90;;;;;;5001635;28;20053;-91
2023/12/21 04:45:24;;;;;;;38.28;36.78;;;8.70;99.90;;;;;;5001949;28;20080;-89
2023/12/21 04:47:49;;;;;;;38.25;36.55;;;8.70;99.90;;;;;;5018026;28;20037;-89
2023/12/21 04:50:15;;;;;;;43.08;41.17;;;8.70;99.90;;;;;;5018573;28;20056;-90
2023/12/21 04:52:41;;;;;;;37.13;35.47;;;8.70;99.90;;;;;;5035084;28;20045;-88
2023/12/21 04:55:07;;;;;;;36.58;35.00;;;8.70;99.90;;;;;;5002525;28;20049;-92
2023/12/21 04:57:33;;;;;;;38.88;37.10;;;8.70;99.90;;;;;;5002614;28;20112;-87
2023/12/21 04:59:59;;;;;;;36.88;35.40;;;8.70;99.90;;;;;;5017486;28;20485;-92
2023/12/21 05:02:24;;;;;;;35.92;34.53;;;8.70;99.90;;;;;;5034565;28;20089;-90
2023/12/21 05:04:50;;;;;;;38.25;36.47;;;8.70;99.90;;;;;;5017488;28;20043;-86
2023/12/21 05:07:16;;;;;;;37.55;35.85;;;8.70;99.90;;;;;;5035000;28;20033;-91
2023/12/21 05:09:41;;;;;;;37.70;36.10;;;8.70;99.90;;;;;;5001484;28;20056;-92
2023/12/21 05:12:08;;;;;;;37.83;35.90;;;8.70;99.90;;;;;;5017915;28;20092;-89
2023/12/21 05:14:34;;;;;;;39.45;37.83;;;8.70;99.90;;;;;;5017652;28;20041;-91
2023/12/21 05:17:00;;;;;;;36.20;34.70;;;8.70;99.90;;;;;;5001235;28;20075;-91
2023/12/21 05:19:26;;;;;;;36.67;35.20;;;8.70;99.90;;;;;;5002024;28;20060;-89
2023/12/21 05:21:52;;;;;;;36.35;34.40;;;8.70;99.90;;;;;;4985393;28;20128;-89
2023/12/21 05:24:18;;;;;;;35.80;34.30;;;8.70;99.90;;;;;;5033872;28;20524;-91
2023/12/21 05:26:43;;;;;;;33.95;32.60;;;8.60;99.90;;;;;;5034174;28;20151;-91
2023/12/21 05:29:09;;;;;;;33.97;32.67;;;8.70;99.90;;;;;;5018061;28;20045;-90
2023/12/21 05:31:37;;;;;;;37.63;36.33;;;8.70;99.90;;;;;;5000767;28;20072;-91
2023/12/21 05:34:04;;;;;;;35.63;34.10;;;8.70;99.90;;;;;;5018289;28;20037;-91
2023/12/21 05:36:29;;;;;;;35.25;33.75;;;8.70;99.90;;;;;;5017330;28;20084;-87
2023/12/21 05:38:56;;;;;;;40.78;38.90;;;8.70;99.90;;;;;;5033972;28;20049;-87
2023/12/21 05:41:21;;;;;;;38.33;36.72;;;8.80;99.90;;;;;;5018769;28;20466;-92
2023/12/21 05:43:47;;;;;;;38.15;36.47;;;8.70;99.90;;;;;;5001522;28;20102;-90
2023/12/21 05:46:13;;;;;;;35.83;34.28;;;8.70;99.90;;;;;;5001080;28;20366;-91
2023/12/21 05:48:38;;;;;;;40.05;38.15;;;8.70;99.90;;;;;;5033745;28;20033;-90
2023/12/21 05:51:04;;;;;;;38.90;37.42;;;8.70;99.90;;;;;;5034500;28;20041;-89
2023/12/21 05:53:30;;;;;;;42.00;40.25;;;8.70;99.90;;;;;;5000415;28;20040;-89
2023/12/21 05:55:56;;;;;;;35.90;34.30;;;8.70;99.90;;;;;;5017037;28;20061;-88
2023/12/21 05:58:22;;;;;;;33.55;32.13;;;8.70;99.90;;;;;;5016019;28;20033;-90
2023/12/21 06:00:48;;;;;;;32.90;31.42;;;8.70;99.90;;;;;;5032164;28;20470;-89
2023/12/21 06:03:14;;;;;;;33.58;32.13;;;8.70;99.90;;;;;;5033271;28;20033;-90
2023/12/21 06:05:40;;;;;;;31.27;29.98;;;8.70;99.90;;;;;;5016374;28;20077;-89
2023/12/21 06:08:06;;;;;;;37.00;35.22;;;8.70;99.90;;;;;;5017014;28;20099;-91
2023/12/21 06:10:32;;;;;;;38.20;36.10;;;8.80;99.90;;;;;;5034270;28;20041;-89
2023/12/21 06:12:58;;;;;;;35.60;34.00;;;8.70;99.90;;;;;;5017316;28;20049;-86
2023/12/21 06:15:23;;;;;;;36.75;35.25;;;8.70;99.90;;;;;;5008678;28;20369;-91
2023/12/21 06:17:49;;;;;;;38.92;37.15;;;8.80;99.90;;;;;;5000626;28;20033;-91
2023/12/21 06:20:15;;;;;;;30.25;28.85;;;8.80;99.90;;;;;;4984177;28;20156;-88
2023/12/21 06:22:41;;;;;;;31.95;30.75;;;8.70;99.90;;;;;;5016982;28;20068;-90
2023/12/21 06:25:07;;;;;;;33.15;31.65;;;8.80;99.90;;;;;;5016212;28;20049;-85
2023/12/21 06:27:33;;;;;;;36.50;34.78;;;8.80;99.90;;;;;;5031951;28;20124;-91
2023/12/21 06:29:58;;;;;;;38.63;36.92;;;8.70;99.90;;;;;;4999803;28;20096;-90
2023/12/21 06:32:24;;;;;;;35.88;34.20;;;8.80;99.90;;;;;;5033019;28;20049;-90
2023/12/21 06:34:50;;;;;;;35.03;33.72;;;8.80;99.90;;;;;;5000563;28;20465;-92
2023/12/21 06:37:16;;;;;;;34.90;33.30;;;8.80;99.90;;;;;;5016849;28;20052;-88
2023/12/21 06:39:41;;;;;;;34.63;33.15;;;8.80;99.90;;;;;;4999610;28;20049;-85
2023/12/21 06:42:07;;;;;;;29.20;28.10;;;8.80;99.90;;;;;;5015686;28;20049;-85
2023/12/21 06:44:33;;;;;;;29.40;28.00;;;8.80;99.90;;;;;;5002624;28;20041;-86
2023/12/21 06:46:58;;;;;;;32.08;30.55;;;8.80;99.90;;;;;;5036314;28;20377;-90
2023/12/21 06:49:24;;;;;;;30.02;28.08;;;8.80;99.90;;;;;;5019471;28;20047;-89
2023/12/21 06:51:50;;;;;;;28.65;27.38;;;8.80;99.90;;;;;;5019363;28;20049;-87
2023/12/21 06:54:16;;;;;;;26.23;24.73;;;8.80;99.90;;;;;;5036759;28;20056;-87
2023/12/21 06:56:42;;;;;;;28.05;26.80;;;8.90;99.90;;;;;;5035979;28;20483;-87
2023/12/21 06:59:07;;;;;;;25.27;24.08;;;8.90;99.90;;;;;;5018801;28;20049;-86
2023/12/21 07:01:33;;;;;;;25.73;24.63;;;8.90;99.90;;;;;;5035289;28;20048;-88
2023/12/21 07:03:59;;;;;;;28.33;26.83;;;8.90;99.90;;;;;;5035204;28;20604;-89
2023/12/21 07:06:27;;;;;;;29.63;28.25;;;8.90;99.90;;;;;;5035403;28;20045;-86
2023/12/21 07:08:54;;;;;;;28.80;27.58;;;8.90;99.90;;;;;;5026941;28;20049;-87
2023/12/21 07:11:19;;;;;;;26.90;25.80;;;8.90;99.90;;;;;;5018674;28;20047;-84
2023/12/21 07:13:45;;;;;;;30.25;28.95;;;8.90;99.90;;;;;;5034162;28;20472;-78
2023/12/21 07:16:12;;;;;;;31.58;30.33;;;8.90;99.90;;;;;;5034375;28;20037;-79
2023/12/21 07:18:37;;;;;;;34.92;33.08;;;9.20;99.90;;;;;;5034785;28;20049;-80
2023/12/21 07:21:05;;;;;;;37.17;35.55;;;8.90;99.90;;;;;;5035791;28;20041;-78
2023/12/21 07:23:30;;;;;;;51.88;49.38;;;8.80;99.90;;;;;;5034889;28;20041;-79
2023/12/21 07:25:56;;;;;;;36.50;34.83;;;8.80;99.90;;;;;;5033840;28;20465;-79
2023/12/21 07:28:22;;;;;;;39.03;37.47;;;8.80;99.90;;;;;;5031750;28;20042;-79
2023/12/21 07:30:48;;;;;;;39.42;37.83;;;8.80;99.90;;;;;;5032736;28;20038;-78
2023/12/21 07:33:14;;;;;;;40.28;38.63;;;8.80;99.90;;;;;;5034761;28;20059;-79
2023/12/21 07:35:39;;;;;;;44.90;43.25;;;8.80;99.90;;;;;;5034325;28;20045;-79
2023/12/21 07:38:06;;;;;;;45.85;43.88;;;8.80;99.90;;;;;;5034098;28;20137;-80
2023/12/21 07:40:32;;;;;;;44.10;42.50;;;8.80;99.90;;;;;;5034107;28;20030;-81
2023/12/21 07:42:58;;;;;;;44.13;42.42;;;8.80;99.90;;;;;;5034192;28;20111;-82
2023/12/21 07:45:24;;;;;;;42.08;40.58;;;8.70;99.90;;;;;;5033395;28;20049;-79
2023/12/21 07:47:49;;;;;;;53.75;51.88;;;8.80;99.90;;;;;;5034807;28;20049;-80
2023/12/21 07:50:15;;;;;;;44.78;42.95;;;8.70;99.90;;;;;;5035085;28;20053;-79
2023/12/21 07:52:40;;;;;;;37.50;36.08;;;8.70;99.90;;;;;;5035465;28;20164;-79
2023/12/21 07:55:07;;;;;;;39.70;38.30;;;8.70;99.90;;;;;;5034908;28;20445;-79
2023/12/21 07:57:33;;;;;;;37.60;36.25;;;8.70;99.90;;;;;;5034088;28;20475;-79
2023/12/21 07:59:59;;;;;;;37.30;36.00;;;8.80;99.90;;;;;;5032917;28;20116;-76
2023/12/21 08:02:24;;;;;;;36.90;35.55;;;8.70;99.90;;;;;;5016897;28;20128;-74
2023/12/21 08:04:50;;;;;;;31.83;30.63;;;8.80;99.90;;;;;;5032656;28;20064;-76
2023/12/21 08:07:16;;;;;;;36.10;34.60;;;8.80;99.90;;;;;;5046371;28;20148;-76
2023/12/21 08:09:42;;;;;;;34.88;33.58;;;8.80;99.90;;;;;;5033533;28;20132;-74
2023/12/21 08:12:14;;;;;;;30.20;29.10;;;8.80;99.90;;;;;;5025822;28;20074;-87
2023/12/21 08:14:40;;;;;;;29.77;28.50;;;8.80;99.90;;;;;;5028885;28;20062;-82
2023/12/21 08:17:09;;;;;;;32.47;31.33;;;8.70;99.90;;;;;;5031715;28;20061;-83
2023/12/21 08:19:37;;;;;;;25.10;24.20;;;9.30;99.90;;;;;;5031843;28;20053;-81
2023/12/21 08:22:03;;;;;;;27.73;26.75;;;8.80;99.90;;;;;;5031761;28;20052;-84
2023/12/21 08:24:28;;;;;;;27.27;26.27;;;8.80;99.90;;;;;;5015903;28;20045;-85
2023/12/21 08:26:54;;;;;;;25.85;24.85;;;8.80;99.90;;;;;;5014345;28;20092;-83
2023/12/21 08:29:20;;;;;;;28.02;26.95;;;8.80;99.90;;;;;;5031508;28;20501;-83
2023/12/21 08:31:45;;;;;;;29.33;28.23;;;8.80;99.90;;;;;;5015515;28;20049;-85
2023/12/21 08:34:12;;;;;;;31.10;30.02;;;8.90;99.90;;;;;;5031964;28;20049;-83
2023/12/21 08:36:38;;;;;;;30.80;29.60;;;8.90;99.90;;;;;;5015178;28;20375;-83
2023/12/21 08:39:04;;;;;;;27.75;26.75;;;8.90;99.90;;;;;;5008122;28;20056;-83
2023/12/21 08:41:29;;;;;;;25.90;24.88;;;8.80;99.90;;;;;;5013221;28;20076;-83
2023/12/21 08:43:55;;;;;;;25.30;24.30;;;8.80;99.90;;;;;;5030271;28;20045;-83
2023/12/21 08:46:21;;;;;;;28.98;27.98;;;8.80;99.90;;;;;;5013124;28;20168;-86
2023/12/21 08:48:47;;;;;;;25.83;24.92;;;8.90;99.90;;;;;;5024178;28;20068;-84
2023/12/21 08:51:14;;;;;;;25.10;24.25;;;8.90;99.90;;;;;;4992510;28;20041;-82
2023/12/21 08:53:40;;;;;;;25.30;24.30;;;8.90;99.90;;;;;;5025599;28;20038;-84
2023/12/21 08:56:06;;;;;;;25.63;24.73;;;8.90;99.90;;;;;;5030091;28;20482;-85
2023/12/21 08:58:32;;;;;;;29.02;27.92;;;8.90;99.90;;;;;;5032841;28;20458;-88
2023/12/21 09:00:58;;;;;;;27.50;26.42;;;8.90;99.90;;;;;;5018654;28;20433;-87
2023/12/21 09:03:24;;;;;;;25.52;24.63;;;9.00;99.90;;;;;;5018238;28;20124;-88
2023/12/21 09:05:50;;;;;;;31.23;30.13;;;9.00;99.90;;;;;;5017649;28;20553;-87
2023/12/21 09:08:16;;;;;;;27.70;26.70;;;8.90;99.90;;;;;;5035979;28;20049;-86
2023/12/21 09:10:42;;;;;;;24.17;23.27;;;9.00;99.90;;;;;;5021582;28;20053;-87
2023/12/21 09:13:08;;;;;;;27.23;26.00;;;9.00;99.90;;;;;;4988798;28;20049;-87
2023/12/21 09:15:36;;;;;;;27.08;25.77;;;9.00;99.90;;;;;;5005476;28;20049;-89
2023/12/21 09:18:05;;;;;;;26.65;25.55;;;9.00;99.90;;;;;;5041297;28;20550;-89
2023/12/21 09:20:31;;;;;;;28.00;26.77;;;9.00;99.90;;;;;;5040350;28;20482;-89
2023/12/21 09:22:56;;;;;;;19.25;18.15;;;9.00;99.90;;;;;;5007576;28;20061;-87
2023/12/21 09:25:22;;;;;;;23.58;22.65;;;9.10;99.90;;;;;;5037200;28;20124;-87
2023/12/21 09:27:48;;;;;;;26.42;25.20;;;9.10;99.90;;;;;;5016498;28;20038;-89
2023/12/21 09:30:14;;;;;;;24.50;23.50;;;9.10;99.90;;;;;;5000101;28;20052;-87
2023/12/21 09:32:40;;;;;;;27.73;26.65;;;9.10;99.90;;;;;;5014470;28;20253;-88
2023/12/21 09:35:06;;;;;;;28.27;26.85;;;9.10;99.90;;;;;;4999497;28;20493;-87
2023/12/21 09:37:33;;;;;;;26.02;25.02;;;9.10;99.90;;;;;;5016050;28;20087;-88
2023/12/21 09:39:58;;;;;;;23.05;21.77;;;9.10;99.90;;;;;;4996548;28;20058;-90
2023/12/21 09:42:27;;;;;;;27.83;26.60;;;9.10;99.90;;;;;;5014199;28;20048;-87
2023/12/21 09:44:53;;;;;;;24.25;22.90;;;9.20;99.90;;;;;;5030506;28;20405;-88
2023/12/21 09:47:22;;;;;;;21.38;20.48;;;9.10;99.90;;;;;;5028409;28;20045;-87
2023/12/21 09:49:50;;;;;;;21.65;20.80;;;9.20;99.90;;;;;;5016195;28;20045;-89
2023/12/21 09:52:18;;;;;;;33.58;32.15;;;9.20;99.90;;;;;;4998960;28;20053;-86
2023/12/21 09:54:45;;;;;;;20.27;19.50;;;9.20;99.90;;;;;;5031694;28;20044;-88
2023/12/21 09:57:14;;;;;;;20.73;19.50;;;9.20;99.90;;;;;;5031954;28;20045;-86
2023/12/21 09:59:40;;;;;;;25.85;24.77;;;9.30;99.90;;;;;;5032103;28;20052;-87
2023/12/21 10:02:11;;;;;;;23.00;22.00;;;9.30;99.90;;;;;;4985926;28;20045;-89
2023/12/21 10:04:45;;;;;;;23.88;22.98;;;9.40;99.90;;;;;;5003715;28;20445;-87
2023/12/21 10:07:11;;;;;;;22.33;21.42;;;9.30;99.90;;;;;;5016998;28;20055;-90
2023/12/21 10:09:40;;;;;;;23.50;22.48;;;9.40;99.90;;;;;;5000437;28;20134;-86
2023/12/21 10:12:09;;;;;;;21.55;20.63;;;9.40;99.90;;;;;;5028532;28;20053;-89
2023/12/21 10:14:34;;;;;;;22.73;21.67;;;9.50;99.90;;;;;;5032127;28;20094;-86
2023/12/21 10:17:01;;;;;;;25.30;23.60;;;9.50;99.90;;;;;;5033143;28;20131;-86
2023/12/21 10:19:27;;;;;;;22.58;21.67;;;9.40;99.90;;;;;;5015658;28;20055;-87
2023/12/21 10:21:53;;;;;;;25.42;24.33;;;9.50;99.90;;;;;;5032557;28;20049;-85
2023/12/21 10:24:19;;;;;;;24.13;23.02;;;9.50;99.90;;;;;;4999286;28;20091;-88
2023/12/21 10:26:47;;;;;;;33.03;31.50;;;9.60;99.90;;;;;;5034351;28;20394;-88
2023/12/21 10:29:15;;;;;;;22.55;21.45;;;9.60;99.90;;;;;;5020241;28;20494;-86
2023/12/21 10:31:50;;;;;;;32.25;30.92;;;9.60;99.90;;;;;;5016481;28;20405;-88
2023/12/21 10:34:16;;;;;;;26.83;25.70;;;9.60;99.90;;;;;;5017731;28;20107;-85
2023/12/21 10:36:45;;;;;;;31.10;29.60;;;9.60;99.90;;;;;;5016922;28;20478;-84
2023/12/21 10:39:12;;;;;;;28.30;26.90;;;9.70;99.90;;;;;;5008622;28;20410;-88
2023/12/21 10:41:45;;;;;;;29.75;28.50;;;9.70;99.90;;;;;;5011036;28;20466;-85
2023/12/21 10:44:12;;;;;;;31.27;29.98;;;9.70;99.90;;;;;;5026590;28;20103;-84
2023/12/21 10:46:38;;;;;;;31.65;30.17;;;9.70;99.90;;;;;;5009095;28;20045;-88
2023/12/21 10:49:06;;;;;;;29.83;28.35;;;9.80;99.90;;;;;;5023940;28;20050;-85
2023/12/21 10:51:35;;;;;;;34.95;32.97;;;9.70;99.90;;;;;;5031146;28;20510;-89
2023/12/21 10:54:04;;;;;;;37.00;35.22;;;9.70;99.90;;;;;;5031758;28;20506;-87
2023/12/21 10:56:31;;;;;;;37.63;35.97;;;9.70;99.90;;;;;;5031580;28;20042;-89
2023/12/21 10:59:01;;;;;;;32.92;31.50;;;9.60;99.90;;;;;;4998503;28;20045;-86
2023/12/21 11:01:29;;;;;;;35.60;34.08;;;9.70;99.90;;;;;;5024188;28;20041;-84
2023/12/21 11:03:59;;;;;;;33.03;31.58;;;9.70;99.90;;;;;;5030257;28;20152;-86
2023/12/21 11:06:26;;;;;;;33.85;32.40;;;9.80;99.90;;;;;;5014525;28;20389;-84
2023/12/21 11:08:56;;;;;;;38.25;36.75;;;9.80;99.90;;;;;;5029859;28;20044;-85
2023/12/21 11:11:23;;;;;;;36.65;35.10;;;9.90;99.90;;;;;;5014313;28;20616;-85
2023/12/21 11:13:54;;;;;;;37.78;36.25;;;9.90;99.90;;;;;;5014258;28;20050;-83
2023/12/21 11:16:27;;;;;;;39.70;38.15;;;9.90;99.90;;;;;;4997554;28;20048;-87
2023/12/21 11:18:59;;;;;;;29.23;27.55;;;9.90;99.90;;;;;;5032098;28;20057;-86
2023/12/21 11:21:29;;;;;;;32.53;31.13;;;9.40;99.90;;;;;;5031386;28;20490;-90
2023/12/21 11:23:58;;;;;;;29.17;27.95;;;9.90;99.90;;;;;;5014428;28;20141;-88
2023/12/21 11:26:27;;;;;;;40.15;38.40;;;9.90;99.90;;;;;;5015165;28;20052;-87
2023/12/21 11:29:07;;;;;;;30.85;29.55;;;9.80;99.90;;;;;;5014029;28;20474;-88
2023/12/21 11:31:40;;;;;;;32.90;31.50;;;9.90;99.90;;;;;;5027027;28;20401;-84
2023/12/21 11:34:19;;;;;;;45.03;43.22;;;9.80;99.90;;;;;;5001876;28;20095;-86
2023/12/21 11:36:46;;;;;;;39.63;37.58;;;9.90;99.90;;;;;;5016252;28;20128;-84
2023/12/21 11:39:22;;;;;;;34.17;32.72;;;9.80;99.90;;;;;;5032997;28;20565;-83
2023/12/21 11:42:00;;;;;;;34.17;32.53;;;9.90;99.90;;;;;;5000693;28;20482;-86
2023/12/21 11:44:36;;;;;;;32.95;31.05;;;9.90;99.90;;;;;;5017462;28;20132;-85
2023/12/21 11:47:01;;;;;;;38.92;37.20;;;9.80;99.90;;;;;;5017218;28;20504;-85
2023/12/21 11:49:29;;;;;;;35.60;34.03;;;9.90;99.90;;;;;;5034115;28;20087;-86
2023/12/21 11:51:55;;;;;;;33.45;31.67;;;9.90;99.90;;;;;;5000338;28;20058;-88
2023/12/21 11:54:22;;;;;;;32.58;30.80;;;9.90;99.90;;;;;;5017298;28;20053;-85
2023/12/21 11:56:53;;;;;;;33.53;32.03;;;9.80;99.90;;;;;;5034237;28;20052;-85
2023/12/21 11:59:23;;;;;;;34.17;32.58;;;9.80;99.90;;;;;;5001379;28;20056;-85
2023/12/21 12:01:50;;;;;;;32.13;30.27;;;9.80;99.90;;;;;;5028564;28;20505;-86
2023/12/21 12:04:16;;;;;;;36.35;34.67;;;9.70;99.90;;;;;;5016177;28;20049;-84
2023/12/21 12:06:43;;;;;;;37.78;35.95;;;9.70;99.90;;;;;;5016721;28;20053;-85
2023/12/21 12:09:09;;;;;;;33.85;32.03;;;9.70;99.90;;;;;;4991908;28;20053;-84
2023/12/21 12:11:35;;;;;;;33.65;32.05;;;9.80;99.90;;;;;;4979935;28;20034;-87
2023/12/21 12:14:01;;;;;;;33.58;31.73;;;9.80;99.90;;;;;;5013797;28;20049;-88
2023/12/21 12:16:27;;;;;;;29.98;28.40;;;9.80;99.90;;;;;;5028183;28;20132;-86
2023/12/21 12:18:56;;;;;;;26.63;25.23;;;9.80;99.90;;;;;;4997575;28;20060;-86
2023/12/21 12:21:22;;;;;;;24.27;22.98;;;9.80;99.90;;;;;;5033027;28;20128;-86
2023/12/21 12:23:47;;;;;;;25.42;24.23;;;9.70;99.90;;;;;;5016822;28;20569;-88
2023/12/21 12:26:15;;;;;;;33.97;32.22;;;9.70;99.90;;;;;;5016757;28;20053;-87
2023/12/21 12:28:41;;;;;;;19.55;18.42;;;9.70;99.90;;;;;;5016220;28;20398;-86
2023/12/21 12:31:07;;;;;;;26.58;24.98;;;9.70;99.90;;;;;;4998471;28;20053;-87